Time;durP1;ratioP1;P1;durP2;ratioP2;P2;SDS_P1;SDS_P2;PMS_P1;PMS_P2;Temp;Humidity;BMP_temperature;BMP_pressure;BME280_temperature;BME280_humidity;BME280_pressure;Samples;Min_cycle;Max_cycle;Signal;HPM_P1;HPM_P2
2023/05/20 00:01:18;;;;;;;3.57;2.70;;;20.70;65.50;;;;;;5051820;28;20523;-69
2023/05/20 00:03:47;;;;;;;3.33;3.13;;;20.80;65.90;;;;;;5055562;28;20469;-69
2023/05/20 00:06:15;;;;;;;3.37;3.10;;;20.80;65.40;;;;;;5061370;28;20540;-69
2023/05/20 00:08:43;;;;;;;3.23;3.03;;;20.80;65.40;;;;;;5069511;28;20561;-69
2023/05/20 00:11:12;;;;;;;3.07;2.77;;;20.70;65.50;;;;;;5066668;28;20460;-69
2023/05/20 00:13:41;;;;;;;3.33;3.13;;;20.70;65.50;;;;;;5062387;28;20452;-69
2023/05/20 00:16:09;;;;;;;3.07;2.87;;;20.60;65.70;;;;;;5068441;28;20937;-70
2023/05/20 00:18:38;;;;;;;3.53;3.23;;;20.60;66.00;;;;;;5070780;28;20481;-69
2023/05/20 00:21:06;;;;;;;3.97;3.00;;;20.50;66.20;;;;;;5074155;28;20467;-69
2023/05/20 00:23:34;;;;;;;3.37;3.00;;;20.40;66.40;;;;;;5056547;28;20479;-69
2023/05/20 00:26:02;;;;;;;4.50;3.50;;;20.40;66.40;;;;;;5069329;28;20487;-68
2023/05/20 00:28:31;;;;;;;3.40;3.10;;;20.50;66.50;;;;;;5068999;28;20548;-68
2023/05/20 00:31:00;;;;;;;3.67;3.00;;;20.50;66.40;;;;;;5050934;28;20475;-68
2023/05/20 00:33:28;;;;;;;3.10;2.90;;;20.50;66.20;;;;;;5073853;28;20467;-68
2023/05/20 00:35:57;;;;;;;5.20;4.07;;;20.50;66.40;;;;;;5075958;28;20570;-70
2023/05/20 00:38:25;;;;;;;3.63;2.90;;;20.50;66.10;;;;;;5074912;28;20456;-69
2023/05/20 00:40:53;;;;;;;4.00;3.10;;;20.50;66.30;;;;;;5049155;28;20964;-68
2023/05/20 00:43:24;;;;;;;3.83;3.50;;;20.50;66.30;;;;;;5082718;28;20456;-68
2023/05/20 00:45:52;;;;;;;3.83;3.10;;;20.50;66.40;;;;;;5066819;28;20456;-68
2023/05/20 00:48:23;;;;;;;2.73;2.57;;;20.40;66.70;;;;;;5085648;28;20479;-68
2023/05/20 00:50:52;;;;;;;3.47;3.13;;;20.50;66.50;;;;;;5077952;28;20493;-69
2023/05/20 00:53:21;;;;;;;3.20;2.90;;;20.50;66.60;;;;;;5064962;28;20477;-69
2023/05/20 00:55:49;;;;;;;3.97;3.47;;;20.60;66.20;;;;;;5062296;28;20459;-69
2023/05/20 00:58:18;;;;;;;3.40;3.10;;;20.60;66.00;;;;;;5071671;28;20478;-68
2023/05/20 01:00:46;;;;;;;2.90;2.70;;;20.60;66.10;;;;;;5064426;28;20499;-69
2023/05/20 01:03:15;;;;;;;3.27;2.87;;;20.60;66.10;;;;;;5059493;28;20459;-68
2023/05/20 01:05:45;;;;;;;4.60;2.70;;;20.60;66.10;;;;;;5078845;28;20495;-69
2023/05/20 01:08:14;;;;;;;3.23;2.93;;;20.60;66.20;;;;;;5072351;28;20502;-69
2023/05/20 01:10:47;;;;;;;2.67;2.47;;;20.60;66.10;;;;;;5072824;28;20471;-71
2023/05/20 01:13:19;;;;;;;3.43;3.20;;;20.50;66.40;;;;;;5072513;28;20539;-71
2023/05/20 01:15:48;;;;;;;3.30;3.10;;;20.60;66.30;;;;;;5079733;28;20463;-69
2023/05/20 01:18:19;;;;;;;2.67;2.50;;;20.60;66.10;;;;;;5084793;28;20480;-70
2023/05/20 01:20:51;;;;;;;3.80;3.50;;;20.50;66.20;;;;;;5056237;28;20531;-69
2023/05/20 01:23:22;;;;;;;2.93;2.73;;;20.40;66.50;;;;;;5058171;28;20497;-70
2023/05/20 01:25:50;;;;;;;5.13;3.07;;;20.50;66.40;;;;;;5066304;28;20480;-69
2023/05/20 01:28:18;;;;;;;2.80;2.60;;;20.50;66.00;;;;;;5054659;28;20469;-69
2023/05/20 01:30:52;;;;;;;5.20;2.73;;;20.40;66.40;;;;;;5061855;28;20455;-68
2023/05/20 01:33:23;;;;;;;3.03;2.83;;;20.40;66.40;;;;;;5073758;28;21006;-68
2023/05/20 01:35:51;;;;;;;2.67;2.57;;;20.40;66.40;;;;;;5055074;28;20452;-70
2023/05/20 01:38:23;;;;;;;3.17;2.97;;;20.50;66.20;;;;;;5072213;28;20501;-69
2023/05/20 01:40:53;;;;;;;3.97;3.67;;;20.40;66.60;;;;;;5071609;28;20459;-69
2023/05/20 01:43:22;;;;;;;3.00;2.80;;;20.40;66.30;;;;;;5071721;28;20465;-69
2023/05/20 01:45:50;;;;;;;2.97;2.80;;;20.40;66.50;;;;;;5076011;28;20464;-69
2023/05/20 01:48:19;;;;;;;3.53;3.33;;;20.40;66.70;;;;;;5056947;28;20446;-72
2023/05/20 01:50:47;;;;;;;3.30;3.00;;;20.40;66.30;;;;;;5057536;28;20461;-70
2023/05/20 01:53:17;;;;;;;3.30;2.87;;;20.40;66.40;;;;;;5053122;28;20460;-69
2023/05/20 01:55:46;;;;;;;5.57;3.10;;;20.50;66.70;;;;;;5058471;28;20466;-69
2023/05/20 01:58:14;;;;;;;3.10;2.77;;;20.50;66.20;;;;;;5080989;28;20500;-69
2023/05/20 02:00:44;;;;;;;3.70;3.40;;;20.50;66.60;;;;;;5053649;28;20465;-69
2023/05/20 02:03:12;;;;;;;2.70;2.50;;;20.50;66.40;;;;;;5072115;28;20966;-69
2023/05/20 02:05:41;;;;;;;3.77;3.47;;;20.50;66.40;;;;;;5072250;28;20467;-68
2023/05/20 02:08:09;;;;;;;6.40;3.37;;;20.50;66.50;;;;;;5071301;28;20487;-68
2023/05/20 02:10:38;;;;;;;4.00;3.07;;;20.50;66.50;;;;;;5051099;28;20484;-69
2023/05/20 02:13:07;;;;;;;3.30;3.00;;;20.50;66.70;;;;;;5071837;28;20439;-69
2023/05/20 02:15:36;;;;;;;3.97;3.67;;;20.40;66.40;;;;;;5053443;28;20469;-69
2023/05/20 02:18:04;;;;;;;3.20;3.00;;;20.30;66.80;;;;;;5060584;28;20531;-69
2023/05/20 02:20:35;;;;;;;3.87;3.57;;;20.30;67.00;;;;;;5044317;28;20538;-71
2023/05/20 02:23:04;;;;;;;4.60;3.77;;;20.30;67.00;;;;;;5062952;28;20453;-68
2023/05/20 02:25:32;;;;;;;3.90;3.50;;;20.20;67.30;;;;;;5054414;28;20858;-69
2023/05/20 02:28:04;;;;;;;3.70;3.40;;;20.00;67.60;;;;;;5071065;28;20506;-68
2023/05/20 02:30:34;;;;;;;4.00;3.60;;;20.20;67.50;;;;;;5053185;28;20515;-68
2023/05/20 02:33:03;;;;;;;3.40;3.10;;;20.20;67.40;;;;;;5071442;28;20447;-68
2023/05/20 02:35:31;;;;;;;3.20;3.00;;;20.10;67.50;;;;;;5071002;28;20504;-68
2023/05/20 02:38:00;;;;;;;3.73;3.50;;;20.10;68.00;;;;;;5053194;28;20451;-70
2023/05/20 02:40:28;;;;;;;4.37;4.07;;;20.20;67.40;;;;;;5054047;28;20456;-70
2023/05/20 02:42:56;;;;;;;3.90;3.50;;;20.20;67.30;;;;;;5066402;28;20485;-69
2023/05/20 02:45:25;;;;;;;4.03;3.73;;;20.20;67.30;;;;;;5057086;28;20463;-69
2023/05/20 02:47:54;;;;;;;9.60;4.33;;;20.20;67.40;;;;;;5062704;28;20454;-70
2023/05/20 02:50:23;;;;;;;3.20;2.90;;;20.20;67.30;;;;;;5068159;28;20562;-68
2023/05/20 02:52:51;;;;;;;3.60;3.30;;;20.20;67.50;;;;;;5071144;28;20457;-68
2023/05/20 02:55:20;;;;;;;4.07;3.77;;;20.20;67.50;;;;;;5070460;28;20448;-68
2023/05/20 02:57:48;;;;;;;3.57;3.13;;;20.10;67.80;;;;;;5069152;28;20466;-69
2023/05/20 03:00:17;;;;;;;4.00;3.70;;;20.00;68.20;;;;;;5052664;28;20488;-69
2023/05/20 03:02:47;;;;;;;4.30;3.83;;;20.00;68.00;;;;;;5070108;28;20470;-70
2023/05/20 03:05:16;;;;;;;4.20;3.90;;;20.00;68.00;;;;;;5052568;28;20904;-68
2023/05/20 03:07:47;;;;;;;3.20;3.00;;;20.00;68.00;;;;;;5053254;28;20463;-68
2023/05/20 03:10:16;;;;;;;4.33;3.93;;;20.10;68.00;;;;;;5070202;28;20477;-68
2023/05/20 03:12:44;;;;;;;3.83;3.53;;;20.10;67.90;;;;;;5052253;28;20458;-69
2023/05/20 03:15:12;;;;;;;3.20;3.00;;;20.00;67.80;;;;;;5069062;28;20455;-69
2023/05/20 03:17:40;;;;;;;4.67;3.13;;;19.90;68.00;;;;;;5047215;28;20456;-69
2023/05/20 03:20:11;;;;;;;3.90;3.60;;;19.90;68.60;;;;;;5052036;28;20460;-68
2023/05/20 03:22:42;;;;;;;3.03;2.83;;;19.90;68.20;;;;;;5052827;28;20466;-69
2023/05/20 03:25:10;;;;;;;3.67;3.37;;;19.90;68.30;;;;;;5052827;28;20462;-69
2023/05/20 03:27:39;;;;;;;4.13;3.83;;;19.80;68.60;;;;;;5052812;28;20498;-69
2023/05/20 03:30:08;;;;;;;3.57;3.37;;;19.80;68.70;;;;;;5051902;28;20480;-68
2023/05/20 03:32:37;;;;;;;3.77;3.47;;;20.00;68.30;;;;;;5052756;28;20465;-68
2023/05/20 03:35:07;;;;;;;3.60;3.30;;;20.00;68.00;;;;;;5073409;28;20845;-68
2023/05/20 03:37:36;;;;;;;3.33;3.03;;;20.00;68.20;;;;;;5063591;28;20485;-68
2023/05/20 03:40:09;;;;;;;3.73;3.43;;;19.90;68.40;;;;;;5051927;28;20454;-68
2023/05/20 03:42:38;;;;;;;3.63;3.43;;;20.00;68.00;;;;;;5051220;28;20550;-68
2023/05/20 03:45:08;;;;;;;3.57;3.27;;;20.00;68.10;;;;;;5051928;28;20453;-68
2023/05/20 03:47:43;;;;;;;3.40;3.20;;;19.90;68.40;;;;;;5052266;28;20461;-70
2023/05/20 03:50:12;;;;;;;4.17;3.87;;;19.80;68.70;;;;;;5070094;28;20476;-68
2023/05/20 03:52:41;;;;;;;3.40;3.17;;;19.90;68.50;;;;;;5055702;28;20476;-68
2023/05/20 03:55:11;;;;;;;4.67;4.27;;;19.80;68.80;;;;;;5043152;28;20456;-70
2023/05/20 03:57:39;;;;;;;4.30;3.93;;;19.90;68.70;;;;;;5052737;28;20521;-68
2023/05/20 04:00:13;;;;;;;4.60;4.20;;;19.90;68.40;;;;;;5052065;28;20970;-69
2023/05/20 04:02:44;;;;;;;5.03;4.63;;;19.90;68.50;;;;;;5069669;28;20443;-69
2023/05/20 04:05:16;;;;;;;5.03;4.50;;;19.90;68.60;;;;;;5052588;28;20472;-69
2023/05/20 04:07:45;;;;;;;4.40;4.10;;;19.90;68.60;;;;;;5052110;28;20461;-69
2023/05/20 04:10:15;;;;;;;4.50;4.17;;;19.90;68.60;;;;;;5052354;28;20605;-68
2023/05/20 04:12:44;;;;;;;5.20;3.47;;;19.80;68.80;;;;;;5051450;28;20881;-69
2023/05/20 04:15:13;;;;;;;3.93;3.73;;;19.80;68.80;;;;;;5048840;28;20543;-69
2023/05/20 04:17:51;;;;;;;3.97;3.57;;;19.80;68.80;;;;;;5054939;28;20467;-69
2023/05/20 04:20:19;;;;;;;3.03;2.83;;;19.90;68.70;;;;;;5071211;28;20470;-69
2023/05/20 04:22:49;;;;;;;4.20;3.83;;;19.90;68.70;;;;;;5051919;28;20974;-70
2023/05/20 04:25:19;;;;;;;3.73;3.43;;;20.00;68.50;;;;;;5072407;28;20491;-72
2023/05/20 04:27:48;;;;;;;3.90;3.60;;;20.00;68.50;;;;;;5082950;28;20547;-70
2023/05/20 04:30:17;;;;;;;3.73;3.47;;;20.00;68.60;;;;;;5055311;28;20508;-69
2023/05/20 04:32:47;;;;;;;3.47;3.27;;;20.00;68.30;;;;;;5071911;28;21114;-70
2023/05/20 04:35:15;;;;;;;3.00;2.80;;;20.00;68.50;;;;;;5073604;28;20448;-69
2023/05/20 04:37:47;;;;;;;3.50;3.20;;;20.00;68.50;;;;;;5055407;28;20485;-70
2023/05/20 04:40:17;;;;;;;5.03;4.50;;;20.00;68.50;;;;;;5053400;28;20456;-69
2023/05/20 04:42:47;;;;;;;3.93;3.63;;;20.00;68.40;;;;;;5055583;28;20454;-69
2023/05/20 04:45:16;;;;;;;3.37;3.17;;;19.90;68.70;;;;;;5055495;28;20573;-69
2023/05/20 04:47:45;;;;;;;3.60;3.30;;;20.00;68.60;;;;;;5073589;28;21004;-69
2023/05/20 04:50:14;;;;;;;3.00;2.80;;;20.00;68.40;;;;;;5055509;28;20494;-69
2023/05/20 04:52:44;;;;;;;4.43;4.10;;;20.00;68.70;;;;;;5073260;28;20931;-70
2023/05/20 04:55:14;;;;;;;4.97;4.57;;;19.90;68.60;;;;;;5056255;28;20935;-69
2023/05/20 04:57:43;;;;;;;4.10;3.80;;;20.00;68.50;;;;;;5053962;28;20458;-69
2023/05/20 05:00:14;;;;;;;4.60;4.20;;;19.90;68.90;;;;;;5054670;28;20889;-69
2023/05/20 05:02:43;;;;;;;3.70;3.40;;;20.00;68.70;;;;;;5055088;28;20474;-69
2023/05/20 05:05:11;;;;;;;4.20;3.90;;;20.10;68.30;;;;;;5059570;28;21005;-69
2023/05/20 05:07:39;;;;;;;3.83;3.53;;;20.10;68.40;;;;;;5056811;28;20469;-71
2023/05/20 05:10:08;;;;;;;3.50;3.30;;;20.10;68.40;;;;;;5076356;28;20453;-68
2023/05/20 05:12:37;;;;;;;3.53;3.33;;;20.10;68.30;;;;;;5050051;28;20467;-69
2023/05/20 05:15:06;;;;;;;3.80;3.50;;;20.20;68.30;;;;;;5067594;28;20466;-69
2023/05/20 05:17:36;;;;;;;3.90;3.60;;;20.20;67.90;;;;;;5072473;28;20438;-68
2023/05/20 05:20:07;;;;;;;4.70;4.27;;;20.20;67.90;;;;;;5049784;28;20912;-68
2023/05/20 05:22:35;;;;;;;4.60;4.20;;;20.30;67.70;;;;;;5054852;28;20813;-68
2023/05/20 05:25:05;;;;;;;4.17;3.87;;;20.30;67.70;;;;;;5055333;28;20534;-68
2023/05/20 05:27:33;;;;;;;4.80;4.43;;;20.30;67.80;;;;;;5055159;28;20490;-69
2023/05/20 05:30:02;;;;;;;4.90;4.50;;;20.30;68.00;;;;;;5071903;28;20452;-69
2023/05/20 05:32:31;;;;;;;5.27;4.87;;;20.30;68.00;;;;;;5055925;28;20471;-68
2023/05/20 05:35:00;;;;;;;4.50;4.20;;;20.40;67.80;;;;;;5063514;28;20526;-68
2023/05/20 05:37:29;;;;;;;4.50;4.20;;;20.40;67.70;;;;;;5072997;28;20537;-70
2023/05/20 05:39:57;;;;;;;4.60;4.30;;;20.40;67.60;;;;;;5075863;28;20451;-68
2023/05/20 05:42:26;;;;;;;4.63;4.33;;;20.40;67.60;;;;;;5054200;28;20450;-70
2023/05/20 05:44:55;;;;;;;4.80;4.40;;;20.40;68.00;;;;;;5053415;28;20497;-68
2023/05/20 05:47:28;;;;;;;5.60;5.10;;;20.40;67.60;;;;;;5053841;28;20457;-70
2023/05/20 05:49:56;;;;;;;3.93;3.53;;;20.50;67.50;;;;;;5054525;28;20484;-68
2023/05/20 05:52:26;;;;;;;4.13;3.83;;;20.50;68.00;;;;;;5054143;28;20530;-71
2023/05/20 05:54:55;;;;;;;4.23;3.93;;;20.50;67.60;;;;;;5053919;28;20492;-68
2023/05/20 05:57:23;;;;;;;5.47;5.07;;;20.50;67.50;;;;;;5054443;28;20458;-68
2023/05/20 05:59:51;;;;;;;4.67;4.27;;;20.60;67.30;;;;;;5053071;28;20833;-68
2023/05/20 06:02:20;;;;;;;5.20;4.80;;;20.60;67.40;;;;;;5054029;28;20456;-69
2023/05/20 06:04:48;;;;;;;3.67;3.47;;;20.60;67.20;;;;;;5055545;28;21319;-68
2023/05/20 06:07:17;;;;;;;4.23;3.93;;;20.70;67.80;;;;;;5061024;28;20547;-67
2023/05/20 06:09:47;;;;;;;4.97;4.53;;;20.80;66.80;;;;;;5073943;28;20461;-69
2023/05/20 06:12:15;;;;;;;4.83;4.53;;;20.90;66.60;;;;;;5054284;28;20479;-68
2023/05/20 06:14:43;;;;;;;5.37;4.97;;;20.80;66.60;;;;;;5046639;28;20464;-69
2023/05/20 06:17:11;;;;;;;3.93;3.63;;;20.80;66.90;;;;;;5071762;28;20448;-68
2023/05/20 06:19:40;;;;;;;3.60;3.40;;;20.90;66.80;;;;;;5049175;28;20491;-69
2023/05/20 06:22:09;;;;;;;5.23;4.83;;;21.00;66.60;;;;;;5042488;28;20484;-68
2023/05/20 06:24:37;;;;;;;3.40;3.10;;;21.10;66.10;;;;;;5053168;28;21016;-68
2023/05/20 06:27:07;;;;;;;5.87;5.37;;;21.20;66.40;;;;;;5055461;28;20850;-69
2023/05/20 06:29:36;;;;;;;3.03;2.83;;;21.10;65.90;;;;;;5048088;28;20461;-68
2023/05/20 06:32:05;;;;;;;5.10;4.70;;;21.20;66.00;;;;;;5070386;28;20476;-68
2023/05/20 06:34:33;;;;;;;4.90;4.50;;;21.20;65.70;;;;;;5052503;28;20963;-69
2023/05/20 06:37:01;;;;;;;4.00;3.53;;;21.30;65.40;;;;;;5067041;28;20499;-68
2023/05/20 06:39:29;;;;;;;5.93;5.43;;;21.40;65.70;;;;;;5060114;28;20470;-70
2023/05/20 06:41:58;;;;;;;5.80;5.40;;;21.50;64.80;;;;;;5045243;28;20526;-68
2023/05/20 06:44:32;;;;;;;5.57;5.17;;;21.30;65.10;;;;;;5052344;28;20977;-70
2023/05/20 06:47:21;;;;;;;5.87;5.37;;;21.20;65.20;;;;;;5048569;28;20965;-69
2023/05/20 06:49:51;;;;;;;3.80;3.50;;;21.10;66.00;;;;;;5056333;28;20473;-68
2023/05/20 06:52:19;;;;;;;5.77;5.27;;;21.20;65.70;;;;;;5058143;28;20484;-68
2023/05/20 06:54:48;;;;;;;6.67;6.17;;;21.30;65.20;;;;;;5048773;28;20477;-68
2023/05/20 06:57:18;;;;;;;5.93;5.30;;;21.50;64.80;;;;;;5044915;28;20470;-67
2023/05/20 06:59:47;;;;;;;6.83;6.23;;;21.40;64.90;;;;;;5060068;28;20472;-69
2023/05/20 07:02:17;;;;;;;5.60;5.20;;;21.10;65.60;;;;;;5042693;28;20500;-69
2023/05/20 07:04:45;;;;;;;5.60;5.20;;;21.00;66.10;;;;;;5073067;28;20960;-70
2023/05/20 07:07:14;;;;;;;5.90;4.80;;;20.90;66.10;;;;;;5042099;28;20473;-68
2023/05/20 07:09:45;;;;;;;5.40;4.97;;;20.70;66.70;;;;;;5050723;28;20480;-70
2023/05/20 07:12:14;;;;;;;5.87;5.40;;;20.80;66.30;;;;;;5058843;28;20481;-68
2023/05/20 07:14:43;;;;;;;6.43;5.93;;;20.70;66.30;;;;;;5052417;28;20584;-68
2023/05/20 07:17:13;;;;;;;5.83;5.33;;;20.60;66.80;;;;;;5061824;28;20448;-70
2023/05/20 07:19:43;;;;;;;7.80;7.20;;;20.60;66.80;;;;;;5064035;28;20461;-69
2023/05/20 07:22:12;;;;;;;7.67;7.07;;;20.40;67.00;;;;;;5075221;28;20470;-69
2023/05/20 07:24:53;;;;;;;7.23;6.73;;;20.30;67.10;;;;;;5059957;28;20465;-69
2023/05/20 07:27:22;;;;;;;7.50;6.90;;;20.30;67.30;;;;;;5066035;28;20492;-72
2023/05/20 07:29:50;;;;;;;8.83;7.93;;;20.10;67.60;;;;;;5051261;28;20460;-71
2023/05/20 07:32:20;;;;;;;6.83;6.23;;;20.10;67.90;;;;;;5056115;28;20483;-75
2023/05/20 07:38:48;;;;;;;6.73;6.13;;;20.20;68.10;;;;;;5065162;28;20428;-75
2023/05/20 07:41:30;;;;;;;6.53;5.93;;;20.40;67.50;;;;;;5058165;28;20479;-76
2023/05/20 07:43:59;;;;;;;5.03;4.60;;;20.60;67.40;;;;;;5057922;28;20540;-77
2023/05/20 07:46:27;;;;;;;6.33;5.83;;;20.80;67.60;;;;;;5076853;28;20453;-76
2023/05/20 07:48:57;;;;;;;5.73;5.23;;;21.10;66.70;;;;;;5073969;28;20511;-76
2023/05/20 07:51:26;;;;;;;5.50;5.10;;;21.40;66.20;;;;;;5057667;28;20472;-75
2023/05/20 07:53:54;;;;;;;5.47;5.03;;;21.70;65.60;;;;;;5056257;28;20473;-75
2023/05/20 07:56:22;;;;;;;6.13;5.60;;;21.90;64.70;;;;;;5074110;28;20467;-75
2023/05/20 07:58:55;;;;;;;6.80;6.23;;;22.10;64.30;;;;;;5072375;28;20458;-76
2023/05/20 08:01:29;;;;;;;8.27;7.57;;;22.20;63.90;;;;;;5071667;28;20520;-76
2023/05/20 08:03:58;;;;;;;6.73;6.13;;;22.30;63.50;;;;;;5067595;28;20465;-76
2023/05/20 08:06:27;;;;;;;6.90;6.30;;;22.40;63.30;;;;;;5074418;28;20504;-76
2023/05/20 08:08:57;;;;;;;7.63;7.13;;;22.50;62.80;;;;;;5060363;28;20464;-77
2023/05/20 08:11:31;;;;;;;7.17;6.50;;;22.50;62.80;;;;;;5047024;28;20459;-76
2023/05/20 08:14:02;;;;;;;7.80;7.03;;;22.60;62.60;;;;;;5065164;28;20470;-76
2023/05/20 08:16:37;;;;;;;8.63;7.83;;;22.70;62.40;;;;;;5053876;28;20985;-76
2023/05/20 08:19:08;;;;;;;7.13;6.53;;;22.70;62.20;;;;;;5055587;28;20719;-77
2023/05/20 08:21:38;;;;;;;6.57;5.97;;;22.70;62.20;;;;;;5067443;28;20467;-75
2023/05/20 08:24:07;;;;;;;7.83;6.30;;;22.70;62.20;;;;;;5053904;28;20819;-76
2023/05/20 08:26:37;;;;;;;7.00;6.50;;;22.70;62.20;;;;;;5059852;28;20505;-75
2023/05/20 08:29:07;;;;;;;6.67;6.07;;;22.80;62.20;;;;;;5052710;28;20502;-76
2023/05/20 08:31:36;;;;;;;6.70;6.03;;;22.80;62.20;;;;;;5052094;28;20463;-76
2023/05/20 08:34:07;;;;;;;7.10;6.53;;;22.80;62.00;;;;;;5070994;28;20828;-75
2023/05/20 08:36:36;;;;;;;7.00;6.30;;;22.80;61.90;;;;;;5079220;28;20490;-76
2023/05/20 08:39:06;;;;;;;6.70;6.10;;;22.80;62.00;;;;;;5059819;28;20464;-76
2023/05/20 08:41:35;;;;;;;10.30;9.50;;;22.90;61.80;;;;;;5079957;28;20545;-79
2023/05/20 08:44:05;;;;;;;8.30;7.57;;;22.70;62.10;;;;;;5064451;28;20811;-75
2023/05/20 08:46:37;;;;;;;6.87;6.37;;;22.50;62.60;;;;;;5050331;28;20511;-73
2023/05/20 08:49:08;;;;;;;7.03;6.53;;;22.40;62.90;;;;;;5067293;28;20453;-74
2023/05/20 08:51:38;;;;;;;7.83;6.30;;;22.40;63.10;;;;;;5070583;28;20448;-74
2023/05/20 08:54:08;;;;;;;7.00;6.40;;;22.50;63.30;;;;;;5080180;28;20598;-74
2023/05/20 08:56:38;;;;;;;6.93;6.30;;;22.60;63.20;;;;;;5073730;28;20505;-73
2023/05/20 08:59:07;;;;;;;6.83;6.23;;;22.70;63.00;;;;;;5056661;28;21235;-72
2023/05/20 09:01:41;;;;;;;7.47;6.77;;;22.80;62.80;;;;;;5074671;28;20465;-72
2023/05/20 09:04:12;;;;;;;8.20;6.73;;;22.90;62.50;;;;;;5077231;28;20550;-72
2023/05/20 09:06:44;;;;;;;10.80;7.03;;;23.00;62.30;;;;;;5079263;28;20455;-73
2023/05/20 09:09:14;;;;;;;7.80;5.70;;;23.00;62.20;;;;;;5068798;28;20468;-72
2023/05/20 09:11:43;;;;;;;6.43;5.87;;;23.00;62.00;;;;;;5072826;28;20479;-72
2023/05/20 09:14:12;;;;;;;7.00;6.50;;;23.00;62.20;;;;;;5049692;28;20477;-72
2023/05/20 09:16:41;;;;;;;6.73;6.13;;;23.00;62.10;;;;;;5044873;28;20522;-73
2023/05/20 09:19:11;;;;;;;8.63;7.90;;;23.10;62.00;;;;;;5065336;28;20467;-72
2023/05/20 09:21:41;;;;;;;7.70;7.10;;;23.00;61.80;;;;;;5062736;28;20502;-72
2023/05/20 09:24:09;;;;;;;7.87;7.17;;;22.90;62.20;;;;;;5069549;28;20947;-73
2023/05/20 09:26:38;;;;;;;8.40;6.97;;;22.90;62.50;;;;;;5087229;28;20479;-73
2023/05/20 09:29:07;;;;;;;11.03;7.80;;;22.90;62.40;;;;;;5082096;28;20462;-73
2023/05/20 09:31:37;;;;;;;8.37;7.67;;;22.90;62.50;;;;;;5066714;28;20451;-73
2023/05/20 09:34:06;;;;;;;8.23;7.27;;;22.90;62.30;;;;;;5072165;28;20481;-73
2023/05/20 09:36:39;;;;;;;8.77;8.07;;;22.90;62.50;;;;;;5072835;28;20445;-73
2023/05/20 09:39:12;;;;;;;8.70;8.00;;;22.90;62.80;;;;;;5072702;28;20460;-73
2023/05/20 09:41:49;;;;;;;7.80;7.13;;;22.90;62.70;;;;;;5070522;28;20468;-74
2023/05/20 09:44:19;;;;;;;9.23;8.40;;;22.90;63.10;;;;;;5070992;28;20458;-72
2023/05/20 09:46:48;;;;;;;7.63;6.77;;;22.90;63.20;;;;;;5078364;28;20435;-73
2023/05/20 09:49:17;;;;;;;7.13;6.63;;;22.90;62.90;;;;;;5072034;28;20461;-73
2023/05/20 09:51:48;;;;;;;8.47;7.77;;;23.00;63.00;;;;;;5087112;28;20448;-73
2023/05/20 09:54:19;;;;;;;7.17;6.67;;;23.00;62.90;;;;;;5063775;28;20554;-73
2023/05/20 09:56:47;;;;;;;7.60;6.90;;;23.10;62.90;;;;;;5060720;28;20494;-73
2023/05/20 09:59:16;;;;;;;7.50;6.80;;;23.00;62.40;;;;;;5075309;28;20488;-72
2023/05/20 10:01:45;;;;;;;6.90;6.40;;;23.00;62.70;;;;;;5045145;28;20470;-73
2023/05/20 10:04:16;;;;;;;7.70;6.83;;;23.10;62.70;;;;;;5069653;28;20617;-72
2023/05/20 10:07:10;;;;;;;7.50;6.77;;;23.00;62.70;;;;;;5044063;28;21018;-72
2023/05/20 10:09:52;;;;;;;7.80;7.20;;;23.10;62.80;;;;;;5060976;28;20447;-74
2023/05/20 10:12:29;;;;;;;7.73;7.03;;;23.10;63.20;;;;;;5061446;28;20495;-73
2023/05/20 10:15:10;;;;;;;7.50;6.93;;;23.00;63.10;;;;;;5068794;28;20498;-74
2023/05/20 10:17:46;;;;;;;7.60;7.00;;;22.90;63.60;;;;;;5076200;28;20466;-74
2023/05/20 10:20:14;;;;;;;7.93;7.23;;;22.90;63.30;;;;;;5069845;28;20992;-74
2023/05/20 10:22:54;;;;;;;7.40;6.80;;;22.90;63.30;;;;;;5067563;28;20466;-73
2023/05/20 10:25:26;;;;;;;8.40;7.57;;;23.00;63.10;;;;;;5064895;28;20456;-73
2023/05/20 10:28:06;;;;;;;7.90;7.20;;;22.90;63.10;;;;;;5064403;28;20543;-72
2023/05/20 10:30:35;;;;;;;6.67;6.20;;;22.90;62.60;;;;;;5061697;28;20570;-72
2023/05/20 10:33:05;;;;;;;6.07;5.57;;;22.90;62.30;;;;;;5063605;28;20822;-73
2023/05/20 10:35:34;;;;;;;6.93;6.33;;;22.80;62.80;;;;;;5072986;28;20494;-72
2023/05/20 10:38:12;;;;;;;6.10;5.67;;;22.90;62.60;;;;;;5071599;28;20455;-73
2023/05/20 10:40:40;;;;;;;5.97;5.47;;;22.90;62.80;;;;;;5071749;28;20462;-71
2023/05/20 10:43:10;;;;;;;7.73;6.87;;;23.00;62.40;;;;;;5072885;28;20553;-66
2023/05/20 10:45:49;;;;;;;7.13;6.43;;;23.00;62.40;;;;;;5072291;28;20468;-67
2023/05/20 10:48:23;;;;;;;8.00;6.03;;;23.10;62.40;;;;;;5075049;28;20452;-67
2023/05/20 10:50:55;;;;;;;7.20;6.50;;;23.20;62.60;;;;;;5077318;28;20461;-65
2023/05/20 10:53:26;;;;;;;7.67;6.97;;;23.20;62.70;;;;;;5078422;28;20458;-65
2023/05/20 10:56:02;;;;;;;7.00;6.33;;;23.30;62.70;;;;;;5063745;28;20479;-64
2023/05/20 10:58:38;;;;;;;7.07;6.57;;;23.40;62.20;;;;;;5076046;28;20456;-64
2023/05/20 11:01:07;;;;;;;7.27;6.57;;;23.50;62.10;;;;;;5070827;28;20442;-64
2023/05/20 11:03:36;;;;;;;6.80;6.20;;;23.50;62.00;;;;;;5067592;28;20468;-65
2023/05/20 11:06:12;;;;;;;6.80;6.20;;;23.60;62.20;;;;;;5069288;28;20925;-65
2023/05/20 11:08:45;;;;;;;8.50;6.80;;;23.50;61.80;;;;;;5065748;28;20460;-65
2023/05/20 11:11:15;;;;;;;6.97;6.47;;;23.50;62.00;;;;;;5072296;28;20507;-65
2023/05/20 11:13:44;;;;;;;6.93;6.33;;;23.50;61.70;;;;;;5070954;28;20502;-65
2023/05/20 11:16:13;;;;;;;6.60;6.10;;;23.40;62.10;;;;;;5062704;28;20447;-65
2023/05/20 11:18:42;;;;;;;8.83;6.67;;;23.40;62.40;;;;;;5065262;28;20470;-65
2023/05/20 11:21:11;;;;;;;6.27;5.77;;;23.40;62.20;;;;;;5058164;28;20455;-65
2023/05/20 11:23:39;;;;;;;7.30;6.43;;;23.30;62.50;;;;;;5069684;28;20515;-65
2023/05/20 11:26:10;;;;;;;7.10;6.50;;;23.30;62.30;;;;;;5069291;28;20478;-65
2023/05/20 11:28:39;;;;;;;8.30;6.70;;;23.30;62.50;;;;;;5069576;28;20501;-64
2023/05/20 11:31:10;;;;;;;6.43;5.93;;;23.30;62.30;;;;;;5072303;28;20467;-64
2023/05/20 11:33:43;;;;;;;6.20;5.70;;;23.30;62.40;;;;;;5066223;28;20842;-64
2023/05/20 11:36:12;;;;;;;6.00;5.53;;;23.40;62.00;;;;;;5070836;28;20454;-64
2023/05/20 11:38:55;;;;;;;5.97;5.57;;;23.50;62.20;;;;;;5068813;28;20463;-64
2023/05/20 11:41:26;;;;;;;7.47;5.73;;;23.60;62.10;;;;;;5070718;28;20513;-64
2023/05/20 11:43:58;;;;;;;5.70;5.30;;;23.60;62.20;;;;;;5064316;28;20452;-64
2023/05/20 11:46:27;;;;;;;5.63;5.20;;;23.60;62.00;;;;;;5069837;28;20489;-64
2023/05/20 11:48:57;;;;;;;6.03;5.53;;;23.60;62.20;;;;;;5077755;28;20530;-64
2023/05/20 11:51:27;;;;;;;6.20;5.70;;;23.70;62.20;;;;;;5068621;28;20458;-65
2023/05/20 11:54:01;;;;;;;7.00;6.00;;;23.70;62.10;;;;;;5074768;28;20959;-65
2023/05/20 11:56:31;;;;;;;6.17;5.57;;;23.80;62.30;;;;;;5075598;28;20461;-64
2023/05/20 11:59:00;;;;;;;6.80;6.30;;;24.00;61.90;;;;;;5072876;28;20447;-63
2023/05/20 12:01:29;;;;;;;6.83;5.77;;;24.10;61.40;;;;;;5058000;28;20454;-64
2023/05/20 12:03:57;;;;;;;6.80;6.30;;;24.30;61.10;;;;;;5072861;28;20456;-64
2023/05/20 12:06:26;;;;;;;7.40;6.00;;;24.50;60.80;;;;;;5077349;28;20454;-64
2023/05/20 12:08:54;;;;;;;7.83;7.13;;;24.60;60.50;;;;;;5072959;28;20499;-65
2023/05/20 12:11:22;;;;;;;6.90;6.30;;;24.70;60.30;;;;;;5074524;28;20469;-64
2023/05/20 12:13:52;;;;;;;7.00;6.13;;;24.80;60.00;;;;;;5073431;28;20518;-64
2023/05/20 12:16:20;;;;;;;7.30;6.60;;;24.90;59.90;;;;;;5072956;28;20474;-64
2023/05/20 12:18:49;;;;;;;6.33;5.83;;;25.00;59.60;;;;;;5069700;28;20481;-64
2023/05/20 12:21:17;;;;;;;7.27;6.57;;;25.10;59.20;;;;;;5066792;28;20513;-64
2023/05/20 12:23:45;;;;;;;6.43;5.83;;;25.00;59.30;;;;;;5060889;28;20469;-64
2023/05/20 12:26:13;;;;;;;6.90;6.30;;;25.00;59.60;;;;;;5066363;28;20483;-64
2023/05/20 12:28:41;;;;;;;7.07;6.47;;;25.00;59.50;;;;;;5079622;28;20852;-65
2023/05/20 12:31:11;;;;;;;7.13;6.53;;;25.10;59.50;;;;;;5059837;28;20454;-65
2023/05/20 12:33:39;;;;;;;6.57;5.97;;;25.10;59.40;;;;;;5068722;28;20456;-65
2023/05/20 12:36:08;;;;;;;6.60;6.00;;;25.10;59.40;;;;;;5078296;28;20468;-64
2023/05/20 12:38:36;;;;;;;6.30;5.70;;;25.10;59.40;;;;;;5077320;28;20491;-64
2023/05/20 12:41:05;;;;;;;6.73;5.77;;;25.00;59.50;;;;;;5073563;28;20972;-64
2023/05/20 12:43:33;;;;;;;6.10;5.70;;;25.00;59.70;;;;;;5073953;28;20536;-64
2023/05/20 12:46:03;;;;;;;8.30;5.87;;;24.90;59.80;;;;;;5052260;28;20457;-63
2023/05/20 12:48:33;;;;;;;8.03;6.43;;;24.90;59.90;;;;;;5078998;28;20960;-65
2023/05/20 12:51:01;;;;;;;5.53;5.03;;;24.80;60.00;;;;;;5074435;28;20472;-64
2023/05/20 12:53:29;;;;;;;6.40;5.80;;;24.80;60.00;;;;;;5074717;28;20940;-66
2023/05/20 12:55:58;;;;;;;6.47;5.90;;;24.80;60.10;;;;;;5073194;28;20565;-64
2023/05/20 12:58:26;;;;;;;6.50;6.00;;;24.80;60.00;;;;;;5076897;28;20947;-64
2023/05/20 13:00:54;;;;;;;6.17;5.60;;;24.70;60.20;;;;;;5079853;28;20510;-63
2023/05/20 13:03:22;;;;;;;6.70;6.20;;;24.70;60.10;;;;;;5073103;28;20498;-65